Time;durP1;ratioP1;P1;durP2;ratioP2;P2;SDS_P1;SDS_P2;PMS_P1;PMS_P2;Temp;Humidity;BMP_temperature;BMP_pressure;BME280_temperature;BME280_humidity;BME280_pressure;Samples;Min_cycle;Max_cycle;Signal;HPM_P1;HPM_P2
2022/03/11 00:01:29;;;;;;;6.37;5.63;;;11.40;29.40;;;-142.21;32.25;112049.66;6040473;23;20411;-79
2022/03/11 00:03:57;;;;;;;7.03;5.70;;;11.40;29.80;;;-142.21;32.53;112049.66;6039210;23;20421;-79
2022/03/11 00:06:24;;;;;;;8.03;5.87;;;11.30;29.60;;;-142.21;31.88;112049.66;6039316;23;20509;-79
2022/03/11 00:08:51;;;;;;;8.10;6.43;;;11.30;29.70;;;-142.21;32.30;112049.66;6039037;23;20914;-78
2022/03/11 00:11:22;;;;;;;7.50;6.03;;;11.20;29.80;;;-142.21;32.51;112049.66;6039701;23;20493;-79
2022/03/11 00:13:50;;;;;;;7.03;5.87;;;11.20;29.90;;;-142.21;32.05;112049.66;6039578;23;20473;-79
2022/03/11 00:16:17;;;;;;;7.07;5.80;;;11.30;29.90;;;-142.21;32.39;112049.66;6040352;23;20402;-79
2022/03/11 00:18:44;;;;;;;7.03;5.73;;;11.30;29.90;;;-142.21;32.47;112049.66;6039290;23;20510;-79
2022/03/11 00:21:12;;;;;;;8.57;5.80;;;11.30;30.00;;;-142.21;32.73;112049.66;6039877;23;20467;-78
2022/03/11 00:23:40;;;;;;;8.07;5.97;;;11.30;29.80;;;-142.21;32.30;112049.66;6039404;23;20410;-79
2022/03/11 00:26:07;;;;;;;6.27;5.67;;;11.30;30.00;;;-142.21;32.70;112049.66;6039123;23;20411;-79
2022/03/11 00:28:36;;;;;;;9.10;5.97;;;11.30;30.00;;;-142.21;32.45;112049.66;6040026;23;20406;-79
2022/03/11 00:31:04;;;;;;;7.70;6.20;;;11.20;29.90;;;-142.21;32.90;112049.66;6039409;23;20449;-79
2022/03/11 00:33:31;;;;;;;6.80;5.93;;;11.20;30.10;;;-142.21;32.20;112049.66;6039869;23;20410;-80
2022/03/11 00:35:59;;;;;;;6.93;5.73;;;11.10;30.30;;;-142.21;32.76;112049.66;6038765;23;20489;-79
2022/03/11 00:38:26;;;;;;;8.73;7.00;;;10.90;30.40;;;-142.21;32.25;112049.66;6038737;23;20454;-79
2022/03/11 00:40:56;;;;;;;8.23;6.27;;;10.80;30.60;;;-142.21;32.58;112049.66;6039046;23;20475;-79
2022/03/11 00:43:23;;;;;;;6.90;5.80;;;10.80;30.80;;;-142.21;32.61;112049.66;6040173;23;20497;-79
2022/03/11 00:45:53;;;;;;;8.07;5.73;;;10.70;30.90;;;-142.21;34.70;112049.66;6040099;23;20417;-78
2022/03/11 00:48:20;;;;;;;7.50;6.10;;;10.60;31.50;;;-142.21;34.10;112049.66;6039231;23;20445;-79
2022/03/11 00:50:48;;;;;;;6.53;5.67;;;10.50;31.60;;;-142.21;33.29;112049.66;6039045;23;20453;-76
2022/03/11 00:53:15;;;;;;;7.40;6.13;;;10.50;32.00;;;-142.21;33.14;112049.66;6038646;23;20470;-79
2022/03/11 00:55:43;;;;;;;7.53;6.20;;;10.40;32.00;;;-142.21;33.36;112049.66;6039120;23;20493;-79
2022/03/11 00:58:10;;;;;;;7.40;5.73;;;10.50;32.20;;;-142.21;33.55;112049.66;6039105;23;20453;-79
2022/03/11 01:00:37;;;;;;;6.93;5.93;;;10.50;32.10;;;-142.21;33.98;112049.66;6038994;23;20417;-79
2022/03/11 01:03:06;;;;;;;6.67;5.97;;;10.50;32.10;;;-142.21;33.31;112049.66;6039212;23;20446;-79
2022/03/11 01:05:33;;;;;;;7.40;6.13;;;10.50;32.60;;;-142.21;33.82;112049.66;6039510;23;20493;-79
2022/03/11 01:08:00;;;;;;;9.00;6.77;;;10.30;32.90;;;-142.21;33.71;112049.66;6039349;23;20891;-79
2022/03/11 01:10:29;;;;;;;7.77;6.47;;;10.30;33.00;;;-142.21;33.84;112049.66;6038344;23;20411;-79
2022/03/11 01:12:56;;;;;;;8.77;6.87;;;10.30;33.20;;;-142.21;34.10;112049.66;6039492;23;20460;-79
2022/03/11 01:15:24;;;;;;;9.50;6.80;;;10.40;33.20;;;-142.21;34.14;112049.66;6038754;23;20417;-79
2022/03/11 01:17:51;;;;;;;7.97;6.90;;;10.30;33.50;;;-142.21;34.49;112049.66;6039124;23;20441;-79
2022/03/11 01:20:19;;;;;;;8.63;7.07;;;10.40;33.70;;;-142.21;34.64;112049.66;6038149;23;20422;-79
2022/03/11 01:22:47;;;;;;;12.33;6.97;;;10.30;34.10;;;-142.21;35.17;112049.66;6039383;23;20724;-79
2022/03/11 01:25:14;;;;;;;7.93;6.73;;;10.30;34.30;;;-142.21;34.80;112049.66;6038314;23;20417;-79
2022/03/11 01:27:41;;;;;;;8.00;6.90;;;10.30;34.60;;;-142.21;37.02;112049.66;6038698;23;20450;-79
2022/03/11 01:30:13;;;;;;;8.57;7.03;;;10.20;34.80;;;-142.21;35.50;112049.66;6038928;23;20430;-80
2022/03/11 01:32:41;;;;;;;10.30;7.33;;;10.20;35.10;;;-142.21;36.12;112049.66;6038887;23;20398;-79
2022/03/11 01:35:09;;;;;;;10.90;7.80;;;10.30;35.10;;;-142.21;34.89;112049.66;6038984;23;20466;-79
2022/03/11 01:37:38;;;;;;;9.93;7.97;;;10.20;35.10;;;-142.21;36.51;112049.66;6038761;23;20474;-79
2022/03/11 01:40:07;;;;;;;8.53;7.40;;;10.20;35.30;;;-142.21;38.08;112049.66;6038762;23;20462;-79
2022/03/11 01:42:36;;;;;;;12.13;7.63;;;10.20;35.90;;;-142.21;35.83;112049.66;6037401;23;20446;-80
2022/03/11 01:45:05;;;;;;;10.00;8.10;;;10.20;35.70;;;-142.21;36.71;112049.66;6039266;23;20414;-79
2022/03/11 01:47:32;;;;;;;8.90;7.47;;;10.10;35.90;;;-142.21;36.62;112049.66;6039284;23;20410;-79
2022/03/11 01:50:00;;;;;;;10.07;7.73;;;10.10;35.90;;;-142.21;36.54;112049.66;6038397;23;20442;-78
2022/03/11 01:52:27;;;;;;;8.50;7.60;;;10.20;35.90;;;-142.21;36.37;112049.66;6039066;23;20438;-78
2022/03/11 01:54:57;;;;;;;9.93;7.90;;;10.10;36.10;;;-142.21;36.68;112049.66;6038610;23;20466;-79
2022/03/11 01:57:25;;;;;;;9.30;7.63;;;10.10;36.50;;;-142.21;36.38;112049.66;6039342;23;20407;-77
2022/03/11 01:59:53;;;;;;;11.70;8.43;;;10.20;36.30;;;-142.21;37.18;112049.66;6038297;23;20461;-77
2022/03/11 02:02:20;;;;;;;10.47;8.07;;;10.10;36.70;;;-142.21;36.81;112049.66;6038783;23;20475;-78
2022/03/11 02:04:47;;;;;;;10.63;8.30;;;10.10;36.40;;;-142.21;36.81;112049.66;6038063;23;20449;-78
2022/03/11 02:07:15;;;;;;;9.77;8.10;;;10.10;36.50;;;-142.21;37.14;112049.66;6038936;23;20498;-79
2022/03/11 02:09:42;;;;;;;10.47;8.57;;;10.10;36.60;;;-142.21;36.98;112049.66;6039216;23;20407;-79
2022/03/11 02:12:11;;;;;;;9.90;8.53;;;10.20;36.80;;;-142.21;36.81;112049.66;6038006;23;20475;-79
2022/03/11 02:14:38;;;;;;;9.93;8.87;;;10.10;36.60;;;-142.21;38.10;112049.66;6039037;23;20438;-77
2022/03/11 02:17:05;;;;;;;11.27;8.70;;;10.20;36.80;;;-142.21;37.86;112049.66;6037890;23;20493;-79
2022/03/11 02:19:34;;;;;;;12.27;9.60;;;10.00;36.80;;;-142.21;37.89;112049.66;6038445;23;20457;-77
2022/03/11 02:22:04;;;;;;;9.43;8.47;;;10.10;37.10;;;-142.21;37.80;112049.66;6038155;23;20467;-78
2022/03/11 02:24:33;;;;;;;10.77;9.10;;;10.10;37.10;;;-142.21;37.99;112049.66;6039207;23;20399;-79
2022/03/11 02:27:00;;;;;;;11.30;8.97;;;10.00;37.60;;;-142.21;37.87;112049.66;6013922;23;20446;-78
2022/03/11 02:29:27;;;;;;;10.63;9.03;;;9.90;38.50;;;-142.21;38.82;112049.66;6038946;23;20418;-78
2022/03/11 02:31:54;;;;;;;11.87;9.43;;;9.90;38.30;;;-142.21;37.69;112049.66;6037345;23;20497;-78
2022/03/11 02:34:22;;;;;;;12.03;9.70;;;9.90;38.50;;;-142.21;38.30;112049.66;6037465;23;20896;-79
2022/03/11 02:36:49;;;;;;;11.67;9.53;;;9.80;38.40;;;-142.21;38.45;112049.66;6038671;23;20414;-78
2022/03/11 02:39:16;;;;;;;11.37;9.43;;;9.80;39.10;;;-142.21;39.26;112049.66;6037931;23;20454;-78
2022/03/11 02:41:47;;;;;;;11.93;9.90;;;9.60;39.30;;;-142.21;39.06;112049.66;5989827;23;20743;-78
2022/03/11 02:44:15;;;;;;;11.60;9.43;;;9.60;39.20;;;-142.21;39.00;112049.66;6038757;23;20497;-78
2022/03/11 02:46:42;;;;;;;10.33;9.33;;;9.70;39.00;;;-142.21;39.53;112049.66;6038636;23;20411;-79
2022/03/11 02:49:09;;;;;;;11.23;8.90;;;9.70;39.40;;;-142.21;39.03;112049.66;6038436;23;20493;-79
2022/03/11 02:51:36;;;;;;;11.03;9.30;;;9.70;39.50;;;-142.21;39.28;112049.66;6037755;23;20434;-79
2022/03/11 02:54:04;;;;;;;14.60;10.17;;;9.50;39.60;;;-142.21;39.87;112049.66;6039230;23;20410;-77
2022/03/11 02:56:31;;;;;;;12.43;10.13;;;9.40;39.80;;;-142.21;39.12;112049.66;6038233;23;20410;-78
2022/03/11 02:59:00;;;;;;;11.13;9.60;;;9.40;40.80;;;-142.21;39.31;112049.66;6038622;23;20750;-80
2022/03/11 03:01:27;;;;;;;15.87;9.90;;;9.30;40.50;;;-142.21;39.83;112049.66;6013756;23;20493;-79
2022/03/11 03:03:54;;;;;;;11.20;10.10;;;9.30;40.90;;;-142.21;39.51;112049.66;6037454;23;20414;-79
2022/03/11 03:06:21;;;;;;;14.10;10.50;;;9.40;40.10;;;-142.21;39.82;112049.66;6038776;23;20405;-78
2022/03/11 03:11:30;;;;;;;11.73;10.63;;;9.40;40.50;;;-142.21;39.87;112049.66;5955326;23;20761;-79
2022/03/11 03:13:59;;;;;;;12.23;10.27;;;9.40;40.10;;;-142.21;40.73;112049.66;6038268;23;20421;-74
2022/03/11 03:16:26;;;;;;;11.77;10.00;;;9.30;40.60;;;-142.21;41.72;112049.66;6038613;23;20943;-78
2022/03/11 03:18:53;;;;;;;12.87;10.27;;;9.20;40.80;;;-142.21;40.37;112049.66;6037772;23;20529;-79
2022/03/11 03:21:21;;;;;;;11.73;10.50;;;9.20;40.50;;;-142.21;40.47;112049.66;6038780;23;20434;-79
2022/03/11 03:23:49;;;;;;;13.30;10.07;;;9.20;40.50;;;-142.21;40.30;112049.66;6038330;23;20421;-78
2022/03/11 03:26:16;;;;;;;13.97;11.27;;;9.20;40.60;;;-142.21;40.26;112049.66;6038609;23;20442;-77
2022/03/11 03:28:43;;;;;;;15.07;10.60;;;9.10;40.50;;;-142.21;41.80;112049.66;6040285;23;20802;-78
2022/03/11 03:31:12;;;;;;;13.80;10.80;;;9.20;41.00;;;-142.21;40.98;112049.66;6038145;23;20421;-79
2022/03/11 03:33:39;;;;;;;15.60;11.43;;;9.10;40.90;;;-142.21;41.17;112049.66;6038946;23;20418;-79
2022/03/11 03:36:06;;;;;;;12.17;10.90;;;9.10;40.80;;;-142.21;40.89;112049.66;6037504;23;20471;-78
2022/03/11 03:38:34;;;;;;;13.77;11.40;;;9.10;40.70;;;-142.21;40.74;112049.66;6038601;23;20793;-78
2022/03/11 03:41:01;;;;;;;13.37;10.50;;;9.10;41.50;;;-142.21;41.13;112049.66;6038090;23;20498;-78
2022/03/11 03:43:28;;;;;;;15.67;11.30;;;9.20;40.80;;;-142.21;41.27;112049.66;6038297;23;20438;-79
2022/03/11 03:45:55;;;;;;;13.33;11.13;;;9.10;40.80;;;-142.21;41.77;112049.66;6038645;23;20475;-79
2022/03/11 03:48:24;;;;;;;12.73;11.07;;;9.00;41.00;;;-142.21;41.32;112049.66;6039589;23;20438;-78
2022/03/11 03:50:51;;;;;;;12.30;10.97;;;9.10;41.00;;;-142.21;40.59;112049.66;6039807;23;20438;-78
2022/03/11 03:53:18;;;;;;;15.50;10.93;;;9.10;41.00;;;-142.21;41.35;112049.66;6039965;23;20446;-78
2022/03/11 03:55:45;;;;;;;15.23;11.80;;;9.20;41.10;;;-142.21;41.16;112049.66;6040115;23;20453;-78
2022/03/11 03:58:13;;;;;;;13.93;12.17;;;9.00;41.10;;;-142.21;41.39;112049.66;6040156;23;20410;-79
2022/03/11 04:00:40;;;;;;;15.97;11.70;;;8.90;41.60;;;-142.21;41.59;112049.66;6039298;23;21034;-78
2022/03/11 04:03:09;;;;;;;14.33;12.00;;;8.90;41.70;;;-142.21;41.75;112049.66;6040336;23;20740;-77
2022/03/11 04:05:38;;;;;;;14.73;12.37;;;8.90;42.10;;;-142.21;43.10;112049.66;6015744;23;20510;-79
2022/03/11 04:08:06;;;;;;;15.67;12.63;;;9.00;41.60;;;-142.21;41.56;112049.66;6039811;23;20414;-78
2022/03/11 04:10:33;;;;;;;16.17;12.67;;;9.00;41.40;;;-142.21;42.12;112049.66;6039466;23;20493;-79
2022/03/11 04:13:01;;;;;;;16.47;12.40;;;9.00;41.40;;;-142.21;42.14;112049.66;6039819;23;20432;-76
2022/03/11 04:15:28;;;;;;;15.63;12.27;;;8.90;42.00;;;-142.21;42.68;112049.66;6039973;23;20438;-78
2022/03/11 04:17:55;;;;;;;13.83;12.20;;;8.90;41.90;;;-142.21;42.19;112049.66;6039439;23;20406;-76
2022/03/11 04:20:23;;;;;;;15.70;12.80;;;8.90;41.60;;;-142.21;42.07;112049.66;6040309;23;20573;-79
2022/03/11 04:22:54;;;;;;;15.53;13.10;;;8.80;41.70;;;-142.21;42.03;112049.66;6038898;23;20895;-78
2022/03/11 04:25:21;;;;;;;16.77;13.20;;;8.80;42.20;;;-142.21;41.60;112049.66;6040109;23;20413;-79
2022/03/11 04:27:48;;;;;;;14.97;12.97;;;8.90;41.70;;;-142.21;42.00;112049.66;6038606;23;20489;-78
2022/03/11 04:30:15;;;;;;;17.13;13.97;;;8.90;41.60;;;-142.21;42.48;112049.66;6039918;23;20442;-78
2022/03/11 04:32:44;;;;;;;14.93;13.07;;;9.00;41.40;;;-142.21;42.50;112049.66;6039896;23;20491;-78
2022/03/11 04:35:11;;;;;;;14.97;13.37;;;9.00;41.30;;;-142.21;42.25;112049.66;6039322;23;20417;-79
2022/03/11 04:37:38;;;;;;;14.17;12.27;;;8.90;41.50;;;-142.21;42.99;112049.66;6039272;23;20911;-78
2022/03/11 04:40:09;;;;;;;16.13;13.77;;;8.70;41.70;;;-142.21;42.47;112049.66;6038807;23;20821;-79
2022/03/11 04:42:36;;;;;;;16.23;12.80;;;8.70;42.10;;;-142.21;42.76;112049.66;6038767;23;20410;-79
2022/03/11 04:45:05;;;;;;;15.97;13.47;;;8.70;42.20;;;-142.21;42.33;112049.66;6038634;23;20918;-79
2022/03/11 04:47:34;;;;;;;16.07;14.17;;;8.80;41.80;;;-142.21;42.87;112049.66;6039383;23;20418;-78
2022/03/11 04:50:03;;;;;;;14.90;13.30;;;8.90;42.00;;;-142.21;43.03;112049.66;6038550;23;20453;-78
2022/03/11 04:52:30;;;;;;;15.90;14.07;;;8.80;41.70;;;-142.21;42.53;112049.66;6039344;23;20888;-77
2022/03/11 04:54:57;;;;;;;15.33;12.97;;;8.80;41.60;;;-142.21;42.69;112049.66;6045098;23;20415;-77
2022/03/11 04:57:26;;;;;;;17.10;14.60;;;8.70;41.80;;;-142.21;42.76;112049.66;6060823;23;20449;-76
2022/03/11 04:59:53;;;;;;;16.83;14.60;;;8.60;42.00;;;-142.21;43.03;112049.66;6063206;23;20478;-77
2022/03/11 05:02:27;;;;;;;17.77;13.13;;;8.60;41.90;;;-142.21;43.96;112049.66;6065077;23;20451;-78
2022/03/11 05:05:03;;;;;;;16.50;14.10;;;8.40;42.50;;;-142.21;43.53;112049.66;6066186;23;20394;-78
2022/03/11 05:07:31;;;;;;;17.00;14.47;;;8.30;43.00;;;-142.21;42.90;112049.66;6040680;23;20431;-78
2022/03/11 05:09:58;;;;;;;19.53;15.00;;;8.30;42.50;;;-142.21;43.28;112049.66;6064914;23;20429;-77
2022/03/11 05:12:27;;;;;;;17.77;13.93;;;8.30;42.50;;;-142.21;43.63;112049.66;6064637;23;20447;-78
2022/03/11 05:14:54;;;;;;;18.03;14.80;;;8.20;42.60;;;-142.21;43.19;112049.66;6065812;23;20410;-79
2022/03/11 05:17:21;;;;;;;17.40;14.97;;;8.20;42.70;;;-142.21;43.35;112049.66;6017172;23;20410;-77
2022/03/11 05:19:48;;;;;;;16.17;14.20;;;8.10;42.80;;;-142.21;43.46;112049.66;6065470;23;20469;-76
2022/03/11 05:22:17;;;;;;;16.30;14.40;;;8.10;43.20;;;-142.21;43.82;112049.66;6065429;23;20410;-77
2022/03/11 05:24:44;;;;;;;16.20;14.33;;;7.90;43.50;;;-142.21;43.40;112049.66;6065144;23;20391;-77
2022/03/11 05:27:11;;;;;;;16.60;14.43;;;7.90;43.20;;;-142.21;43.61;112049.66;6050497;23;20485;-76
2022/03/11 05:29:41;;;;;;;17.20;13.80;;;7.90;43.10;;;-142.21;45.22;112049.66;6045842;23;20441;-78
2022/03/11 05:32:09;;;;;;;19.83;14.83;;;7.90;43.50;;;-142.21;43.86;112049.66;6039515;23;20414;-78
2022/03/11 05:34:38;;;;;;;15.70;13.93;;;8.00;43.40;;;-142.21;43.88;112049.66;6039385;23;20797;-78
2022/03/11 05:37:06;;;;;;;16.47;14.13;;;8.00;43.00;;;-142.21;43.64;112049.66;6054816;23;20426;-76
2022/03/11 05:39:34;;;;;;;16.77;14.47;;;8.20;42.50;;;-142.21;43.60;112049.66;6065118;23;20452;-75
2022/03/11 05:42:01;;;;;;;18.60;14.90;;;8.20;42.50;;;-142.21;44.57;112049.66;6064556;23;20418;-77
2022/03/11 05:44:28;;;;;;;17.63;14.37;;;8.20;42.40;;;-142.21;44.80;112049.66;6063575;23;20398;-77
2022/03/11 05:46:57;;;;;;;16.77;14.03;;;8.10;42.80;;;-142.21;43.89;112049.66;6061651;23;20399;-78
2022/03/11 05:49:25;;;;;;;19.10;14.73;;;7.90;42.90;;;-142.21;44.24;112049.66;6059269;23;20434;-79
2022/03/11 05:51:52;;;;;;;16.67;14.10;;;7.90;43.10;;;-142.21;44.78;112049.66;6063014;23;20374;-78
2022/03/11 05:54:20;;;;;;;17.87;15.00;;;7.90;42.90;;;-142.21;43.67;112049.66;6056853;23;20414;-76
2022/03/11 05:56:54;;;;;;;19.27;14.53;;;7.80;42.80;;;-142.21;43.40;112049.66;6044422;23;20411;-78
2022/03/11 05:59:23;;;;;;;17.53;14.67;;;7.90;43.10;;;-142.21;44.39;112049.66;6039017;23;20409;-77
2022/03/11 06:01:50;;;;;;;18.97;15.37;;;7.70;43.20;;;-142.21;44.11;112049.66;6039101;23;20437;-80
2022/03/11 06:04:19;;;;;;;15.90;13.77;;;7.70;43.40;;;-142.21;44.80;112049.66;6038242;23;20418;-79
2022/03/11 06:06:47;;;;;;;16.77;14.67;;;7.90;43.00;;;-142.21;44.82;112049.66;6038782;23;20475;-78
2022/03/11 06:09:14;;;;;;;17.87;14.27;;;7.90;42.80;;;-142.21;43.87;112049.66;6037794;23;20406;-79
2022/03/11 06:11:42;;;;;;;17.00;14.53;;;7.80;42.90;;;-142.21;43.96;112049.66;6039295;23;20407;-79
2022/03/11 06:14:09;;;;;;;16.90;14.20;;;7.90;42.90;;;-142.21;44.13;112049.66;6038669;23;20445;-78
2022/03/11 06:16:36;;;;;;;18.47;15.23;;;8.00;42.80;;;-142.21;43.59;112049.66;6038820;23;20438;-79
2022/03/11 06:19:04;;;;;;;17.53;14.17;;;8.10;42.20;;;-142.21;44.18;112049.66;6038235;23;20421;-79
2022/03/11 06:21:32;;;;;;;17.37;14.60;;;8.20;42.30;;;-142.21;44.75;112049.66;6039121;23;20482;-79
2022/03/11 06:23:59;;;;;;;17.57;14.90;;;8.20;42.30;;;-142.21;44.08;112049.66;6039029;23;20442;-79
2022/03/11 06:26:27;;;;;;;19.50;14.53;;;8.20;42.20;;;-142.21;44.12;112049.66;6038395;23;20483;-79
2022/03/11 06:28:54;;;;;;;17.73;15.27;;;8.20;42.50;;;-142.21;44.00;112049.66;5990359;23;20421;-78
2022/03/11 06:31:21;;;;;;;16.23;14.40;;;8.30;42.20;;;-142.21;43.75;112049.66;6038401;23;20437;-79
2022/03/11 06:33:48;;;;;;;18.40;15.00;;;8.40;42.40;;;-142.21;43.79;112049.66;6039377;23;20442;-78
2022/03/11 06:36:15;;;;;;;15.67;13.87;;;8.40;42.10;;;-142.21;44.58;112049.66;6037939;23;20497;-79
2022/03/11 06:38:44;;;;;;;19.47;14.47;;;8.70;42.20;;;-142.21;43.94;112049.66;6038714;23;20513;-79
2022/03/11 06:41:12;;;;;;;16.67;14.20;;;8.60;42.00;;;-142.21;43.23;112049.66;6038346;23;20453;-78
2022/03/11 06:43:40;;;;;;;16.23;14.50;;;8.70;41.60;;;-142.21;43.77;112049.66;6038464;23;20793;-79
2022/03/11 06:46:07;;;;;;;15.97;13.77;;;8.70;41.60;;;-142.21;43.26;112049.66;6039110;23;20494;-78
2022/03/11 06:48:35;;;;;;;16.53;14.20;;;8.70;41.40;;;-142.21;43.62;112049.66;6038040;23;20437;-78
2022/03/11 06:51:04;;;;;;;21.23;15.07;;;8.80;41.40;;;-142.21;44.00;112049.66;6038849;23;20748;-77
2022/03/11 06:53:32;;;;;;;17.70;14.87;;;8.80;41.50;;;-142.21;43.17;112049.66;6038095;23;20394;-77
2022/03/11 06:56:01;;;;;;;18.33;14.03;;;8.70;41.40;;;-142.21;43.19;112049.66;6038824;23;20509;-77
2022/03/11 06:58:28;;;;;;;16.87;14.60;;;8.70;41.50;;;-142.21;43.07;112049.66;6038143;23;20833;-77
2022/03/11 07:00:55;;;;;;;17.43;14.37;;;9.00;41.40;;;-142.21;42.19;112049.66;6038574;23;20482;-79
2022/03/11 07:03:22;;;;;;;17.97;14.40;;;9.00;40.80;;;-142.21;42.93;112049.66;6038791;23;20914;-80
2022/03/11 07:05:50;;;;;;;17.63;15.00;;;9.10;40.90;;;-142.21;43.15;112049.66;6038050;23;20525;-78
2022/03/11 07:08:17;;;;;;;17.83;14.90;;;9.30;40.70;;;-142.21;42.19;112049.66;6038478;23;20922;-79
2022/03/11 07:10:45;;;;;;;15.33;13.73;;;9.40;40.30;;;-142.21;42.38;112049.66;6037836;23;20446;-76
2022/03/11 07:13:14;;;;;;;18.07;14.60;;;9.50;40.20;;;-142.21;43.01;112049.66;6038599;23;20497;-77
2022/03/11 07:15:41;;;;;;;18.83;14.70;;;9.70;39.90;;;-142.21;41.87;112049.66;6038455;23;20974;-77
2022/03/11 07:18:08;;;;;;;16.53;13.90;;;10.00;39.00;;;-142.21;42.26;112049.66;6038649;23;20414;-77
2022/03/11 07:20:36;;;;;;;19.83;14.37;;;10.90;38.70;;;-142.21;41.56;112049.66;6038794;23;20549;-79
2022/03/11 07:23:03;;;;;;;14.93;13.33;;;11.20;37.00;;;-142.21;41.75;112049.66;6040538;23;20546;-78
2022/03/11 07:25:30;;;;;;;18.20;13.67;;;11.30;36.40;;;-142.21;41.01;112049.66;6040655;23;20410;-77
2022/03/11 07:27:58;;;;;;;15.10;13.50;;;11.70;35.80;;;-142.21;41.65;112049.66;6040467;23;20442;-78
2022/03/11 07:30:26;;;;;;;15.20;13.60;;;11.30;35.90;;;-142.21;42.32;112049.66;6040834;23;20737;-78
2022/03/11 07:32:53;;;;;;;15.43;13.13;;;11.80;36.40;;;-142.21;41.35;112049.66;6039784;23;20410;-77
2022/03/11 07:35:21;;;;;;;15.00;13.40;;;12.20;35.60;;;-142.21;41.32;112049.66;6040386;23;20732;-77
2022/03/11 07:37:49;;;;;;;17.03;14.07;;;12.20;35.20;;;-142.21;40.92;112049.66;6040496;23;20723;-76
2022/03/11 07:40:17;;;;;;;15.53;13.20;;;12.10;35.10;;;-142.21;40.71;112049.66;6040083;23;20935;-75
2022/03/11 07:42:44;;;;;;;16.73;14.93;;;12.10;35.10;;;-142.21;41.66;112049.66;6040342;23;20417;-77
2022/03/11 07:45:14;;;;;;;16.13;13.50;;;12.00;35.00;;;-142.21;40.71;112049.66;6040199;23;20459;-76
2022/03/11 07:47:44;;;;;;;16.07;14.17;;;11.80;35.40;;;-142.21;41.32;112049.66;6039936;23;20442;-76
2022/03/11 07:50:13;;;;;;;15.07;13.47;;;11.70;35.20;;;-142.21;40.58;112049.66;6038935;23;20474;-77
2022/03/11 07:52:41;;;;;;;15.73;13.27;;;11.40;35.40;;;-142.21;41.53;112049.66;6040485;23;20789;-77
2022/03/11 07:55:11;;;;;;;15.03;13.43;;;11.20;35.90;;;-142.21;41.51;112049.66;6039553;23;20410;-75
2022/03/11 07:57:39;;;;;;;16.53;12.97;;;11.10;35.90;;;-142.21;40.41;112049.66;6039972;23;20453;-76
2022/03/11 08:00:09;;;;;;;16.43;13.90;;;10.90;36.10;;;-142.21;39.37;112049.66;6039669;23;20417;-76
2022/03/11 08:02:37;;;;;;;15.10;13.23;;;11.00;36.40;;;-142.21;39.83;112049.66;6040007;23;20409;-76
2022/03/11 08:05:11;;;;;;;14.97;13.27;;;11.30;36.00;;;-142.21;39.66;112049.66;6039557;23;20442;-75
2022/03/11 08:07:39;;;;;;;15.23;12.80;;;11.80;35.70;;;-142.21;40.78;112049.66;6039962;23;20403;-74
2022/03/11 08:10:07;;;;;;;14.87;12.40;;;12.00;35.20;;;-142.21;40.04;112049.66;6040346;23;20410;-76
2022/03/11 08:12:36;;;;;;;14.77;12.93;;;12.60;34.40;;;-142.21;39.23;112049.66;6040277;23;20422;-76
2022/03/11 08:15:04;;;;;;;13.03;11.63;;;12.40;33.90;;;-142.21;39.01;112049.66;6039601;23;20419;-76
2022/03/11 08:17:31;;;;;;;13.23;11.93;;;12.30;33.80;;;-142.21;39.26;112049.66;6039277;23;20418;-76
2022/03/11 08:19:58;;;;;;;13.13;11.73;;;12.40;33.60;;;-142.21;39.24;112049.66;6040068;23;20457;-76
2022/03/11 08:22:29;;;;;;;14.77;12.07;;;12.50;34.20;;;-142.21;38.44;112049.66;6039369;23;20419;-76
2022/03/11 08:24:56;;;;;;;15.23;11.57;;;12.30;33.00;;;-142.21;38.63;112049.66;6039843;23;20395;-78
2022/03/11 08:27:23;;;;;;;15.27;11.57;;;12.20;33.50;;;-142.21;37.78;112049.66;6039374;23;20461;-77
2022/03/11 08:29:50;;;;;;;16.30;11.40;;;12.10;33.90;;;-142.21;39.54;112049.66;6039660;23;20978;-76
2022/03/11 08:32:18;;;;;;;14.53;12.00;;;11.90;33.60;;;-142.21;38.28;112049.66;6039517;23;20961;-75
2022/03/11 08:34:45;;;;;;;13.13;11.20;;;12.00;33.90;;;-142.21;37.99;112049.66;6037575;23;20521;-76
2022/03/11 08:37:12;;;;;;;14.03;10.87;;;12.00;33.90;;;-142.21;38.28;112049.66;6039358;23;20415;-75
2022/03/11 08:39:41;;;;;;;12.87;11.20;;;11.90;33.70;;;-142.21;37.81;112049.66;6039112;23;20414;-75
2022/03/11 08:42:08;;;;;;;12.10;10.70;;;11.80;33.80;;;-142.21;38.38;112049.66;6039670;23;20843;-76
2022/03/11 08:44:35;;;;;;;13.67;11.30;;;11.80;33.90;;;-142.21;37.13;112049.66;6038934;23;20464;-76
2022/03/11 08:47:03;;;;;;;12.43;11.07;;;11.80;34.30;;;-142.21;37.08;112049.66;6039793;23;20475;-75
2022/03/11 08:49:31;;;;;;;13.30;10.83;;;11.80;33.80;;;-142.21;38.00;112049.66;6038665;23;20476;-75
2022/03/11 08:51:59;;;;;;;14.10;10.97;;;11.80;33.60;;;-142.21;37.65;112049.66;6039469;23;20922;-75
2022/03/11 08:54:26;;;;;;;14.47;11.33;;;11.80;33.90;;;-142.21;36.68;112049.66;6038898;23;20911;-76
2022/03/11 08:56:55;;;;;;;14.20;11.97;;;11.80;33.60;;;-142.21;37.31;112049.66;6038875;23;20453;-75
2022/03/11 08:59:22;;;;;;;12.10;10.77;;;12.10;33.70;;;-142.21;36.99;112049.66;6014646;23;20802;-74
2022/03/11 09:01:50;;;;;;;12.10;10.80;;;12.30;33.40;;;-142.21;36.01;112049.66;6038284;23;21274;-76
2022/03/11 09:04:17;;;;;;;13.00;10.60;;;12.30;32.60;;;-142.21;36.41;112049.66;6039383;23;20411;-76
2022/03/11 09:06:45;;;;;;;16.23;11.30;;;12.60;32.60;;;-142.21;37.84;112049.66;6038638;23;20499;-75
2022/03/11 09:09:12;;;;;;;13.23;11.70;;;13.10;32.80;;;-142.21;36.61;112049.66;6039088;23;20494;-75
2022/03/11 09:11:39;;;;;;;12.37;10.90;;;13.60;32.00;;;-142.21;37.66;112049.66;6039300;23;20413;-77
2022/03/11 09:14:08;;;;;;;11.77;10.57;;;14.40;31.40;;;-142.21;36.36;112049.66;6039500;23;20449;-77
2022/03/11 09:16:35;;;;;;;12.07;10.77;;;15.60;30.80;;;-142.21;36.09;112049.66;6039278;23;20414;-77
2022/03/11 09:19:02;;;;;;;14.73;11.80;;;17.30;30.00;;;-142.21;35.62;112049.66;6038912;23;20416;-77
2022/03/11 09:21:30;;;;;;;13.67;11.70;;;18.80;28.60;;;-142.21;35.58;112049.66;6039665;23;20201;-77
2022/03/11 09:23:57;;;;;;;12.47;11.17;;;19.80;27.50;;;-142.21;34.55;112049.66;6038736;23;20182;-78
2022/03/11 09:26:25;;;;;;;13.10;11.80;;;19.90;25.80;;;-142.21;34.96;112049.66;6037942;23;20716;-77
2022/03/11 09:28:52;;;;;;;12.80;11.50;;;20.20;26.00;;;-142.21;35.35;112049.66;5988162;23;20201;-76
2022/03/11 09:31:21;;;;;;;13.07;11.77;;;20.90;25.80;;;-142.21;34.10;112049.66;6039264;23;20213;-78
2022/03/11 09:33:49;;;;;;;13.40;12.20;;;21.70;25.10;;;-142.21;33.50;112049.66;6039423;23;20186;-78
2022/03/11 09:36:17;;;;;;;12.30;11.10;;;22.60;25.20;;;-142.21;32.56;112049.66;6013408;23;20238;-78
2022/03/11 09:38:44;;;;;;;12.87;11.67;;;23.30;24.10;;;-142.21;34.00;112049.66;6039008;23;20222;-78
2022/03/11 09:41:12;;;;;;;12.33;11.23;;;24.00;24.00;;;-142.21;32.77;112049.66;6037990;23;20223;-78
2022/03/11 09:43:40;;;;;;;12.97;11.67;;;24.70;23.20;;;-142.21;33.47;112049.66;6038683;23;20245;-78
2022/03/11 09:46:09;;;;;;;13.13;11.93;;;25.10;23.20;;;-142.21;33.26;112049.66;6038943;23;20731;-76
2022/03/11 09:48:39;;;;;;;12.57;11.27;;;25.90;23.20;;;-142.21;33.23;112049.66;6039513;23;20242;-77
2022/03/11 09:51:06;;;;;;;13.90;12.23;;;26.60;22.00;;;-142.21;31.91;112049.66;6038001;23;20229;-77
2022/03/11 09:53:35;;;;;;;13.17;11.90;;;26.70;21.20;;;-142.21;31.49;112049.66;6039428;23;20195;-79
2022/03/11 09:56:02;;;;;;;13.67;12.20;;;26.60;21.00;;;-142.21;31.40;112049.66;6039396;23;20514;-76
2022/03/11 09:58:30;;;;;;;11.80;10.60;;;26.70;21.20;;;-142.21;31.05;112049.66;6038515;23;20254;-77